Franklin Reinauer — WCW8832 — position and weather

sailwx.info

Track history (hours):
 
Tides and Currents Weather Stations Pressure Air Temp Water Temp Dewpoint Dewpoint Depression Visibility Wind Speed Wind Dir Waves Ship Positions

Franklin Reinauer

Owner: REINAUER TRANSPORTATION CO.LLC., STATEN ISLAND, NY. More information available from US FCC via Universal Licensing System and Coast Guard Vessel Documentation Center.

Last reported at 2018-Feb-17 23:46 UTC. Time now 2018-Feb-18 18:30 UTC.
Position N 40°51' W 073°46'.

Length 24 m; draft 4 m.

Type: Tug. MMSI: 366725230.

Date/timePositionNaut miles runAvg speedWind from/ knotsBaromVisibWave heightAir tempDewpointWater temp
2018-Feb-17 23:46N 40°51' W 073°46'2 7.7
2018-Feb-17 23:28N 40°48' W 073°47'4 7.8
2018-Feb-17 23:00N 40°48' W 073°51'4 7.6
2018-Feb-17 22:30N 40°47' W 073°56'3 6.9
2018-Feb-17 22:00N 40°44' W 073°58'3 6.2
2018-Feb-17 21:30N 40°41' W 074°01'3 6.1
2018-Feb-17 21:00N 40°39' W 074°04'2 4.1
2018-Feb-17 20:29N 40°39' W 074°07'1 1.4
2018-Feb-17 19:58N 40°38' W 074°08'0 0.0
2018-Feb-17 19:30N 40°38' W 074°08'2 3.4
2018-Feb-17 19:00N 40°39' W 074°06'4 7.9
2018-Feb-17 18:30N 40°40' W 074°01'0 0.4
2018-Feb-17 18:00N 40°40' W 074°01'0 0.5
2018-Feb-17 17:30N 40°40' W 074°01'0 0.0
2018-Feb-17 17:00N 40°40' W 074°01'0 0.0
2018-Feb-17 16:30N 40°40' W 074°01'0 0.4
2018-Feb-17 16:00N 40°40' W 074°01'3 5.2
2018-Feb-17 15:30N 40°39' W 074°04'3 5.4
2018-Feb-17 15:00N 40°38' W 074°08'0 0.1
2018-Feb-17 14:30N 40°38' W 074°08'0 0.0
2018-Feb-17 14:00N 40°38' W 074°08'0 0.0
2018-Feb-17 13:30N 40°38' W 074°08'0 0.0
2018-Feb-17 13:00N 40°38' W 074°08'0 0.0
2018-Feb-17 12:29N 40°38' W 074°08'0 0.0
2018-Feb-17 12:00N 40°38' W 074°08'0 0.0
2018-Feb-17 11:22N 40°38' W 074°08'0 0.0
2018-Feb-17 10:59N 40°38' W 074°08'0 0.0
2018-Feb-17 10:27N 40°38' W 074°08'0 0.0
2018-Feb-17 10:00N 40°38' W 074°08'0 0.0
2018-Feb-17 09:30N 40°38' W 074°08'0 0.0
2018-Feb-17 09:00N 40°38' W 074°08'0 0.0
2018-Feb-17 08:30N 40°38' W 074°08'0 0.6
2018-Feb-17 08:00N 40°39' W 074°07'0 0.7
2018-Feb-17 07:29N 40°39' W 074°07'0 0.0
2018-Feb-17 06:57N 40°39' W 074°07'1 3.0
2018-Feb-17 06:30N 40°39' W 074°05'3 6.8
2018-Feb-17 06:00N 40°40' W 074°01'0 0.0
2018-Feb-17 05:30N 40°40' W 074°01'0 0.0
2018-Feb-17 05:00N 40°40' W 074°01'0 0.0
2018-Feb-17 04:30N 40°40' W 074°01'0 0.0
2018-Feb-17 04:00N 40°40' W 074°01'0 0.0
2018-Feb-17 03:30N 40°40' W 074°01'0 0.0
2018-Feb-17 03:00N 40°40' W 074°01'1 1.0
2018-Feb-17 02:30N 40°40' W 074°00'1 1.1
2018-Feb-17 02:00N 40°40' W 074°01'3 6.3
2018-Feb-17 01:30N 40°39' W 074°05'0 0.8
2018-Feb-17 01:00N 40°39' W 074°05'3 5.8
2018-Feb-17 00:31N 40°40' W 074°01'4 7.9
2018-Feb-17 00:00N 40°39' W 074°06'4 8.5
2018-Feb-16 23:30N 40°38' W 074°12'6 2.6
2018-Feb-16 21:02N 40°33' W 074°15'0 0.0
2018-Feb-16 21:00N 40°33' W 074°15'0 0.0
2018-Feb-16 20:30N 40°33' W 074°15'0 0.0
2018-Feb-16 20:00N 40°33' W 074°15'0 0.0
2018-Feb-16 19:28N 40°33' W 074°15'0 0.0
2018-Feb-16 18:59N 40°33' W 074°15'1 0.5
2018-Feb-16 17:23N 40°33' W 074°14'0 0.0
2018-Feb-16 16:46N 40°33' W 074°14'0 0.0
2018-Feb-16 16:10N 40°33' W 074°14'0 0.0
2018-Feb-16 15:58N 40°33' W 074°14'1 1.0
2018-Feb-16 14:58N 40°33' W 074°15'0 0.5
2018-Feb-16 14:28N 40°33' W 074°15'0 0.9
2018-Feb-16 14:00N 40°33' W 074°15'0 0.0
2018-Feb-16 13:30N 40°33' W 074°15'0 0.0
2018-Feb-16 12:57N 40°33' W 074°15'0 0.0
2018-Feb-16 12:29N 40°33' W 074°15'0 0.0
2018-Feb-16 11:27N 40°33' W 074°15'1 0.9
2018-Feb-16 10:27N 40°32' W 074°15'3 6.5
2018-Feb-16 09:59N 40°35' W 074°13'1 1.4
2018-Feb-16 09:18N 40°35' W 074°12'1 1.7
2018-Feb-16 08:59N 40°36' W 074°12'4 7.4
2018-Feb-16 08:30N 40°39' W 074°09'1 2.7
2018-Feb-16 08:00N 40°38' W 074°08'0 0.0
2018-Feb-16 07:30N 40°38' W 074°08'0 0.0
2018-Feb-16 07:00N 40°38' W 074°08'0 0.0
2018-Feb-16 06:30N 40°38' W 074°08'0 0.0
2018-Feb-16 06:00N 40°38' W 074°08'1 1.0
2018-Feb-16 05:29N 40°39' W 074°07'3 7.1
2018-Feb-16 05:00N 40°40' W 074°03'1 2.9
2018-Feb-16 04:30N 40°40' W 074°01'0 0.1
2018-Feb-16 04:00N 40°40' W 074°01'0 0.1
2018-Feb-16 03:30N 40°40' W 074°01'0 0.1
2018-Feb-16 03:00N 40°40' W 074°01'3 5.2
2018-Feb-16 02:30N 40°39' W 074°04'3 5.5
2018-Feb-16 02:00N 40°38' W 074°08'1 1.3
2018-Feb-16 01:30N 40°39' W 074°07'0 0.0
2018-Feb-16 00:59N 40°39' W 074°07'1 2.8
2018-Feb-16 00:30N 40°39' W 074°05'4 8.2
2018-Feb-15 23:58N 40°39' W 074°11'4 8.7
2018-Feb-15 23:30N 40°35' W 074°13'3 2.3
2018-Feb-15 22:15N 40°33' W 074°15'1 2.7
2018-Feb-15 22:00N 40°33' W 074°15'2 4.5
2018-Feb-15 21:27N 40°35' W 074°13'1 2.1
2018-Feb-15 20:59N 40°36' W 074°12'1 1.2
2018-Feb-15 20:30N 40°37' W 074°12'0 0.0
2018-Feb-15 20:00N 40°37' W 074°12'0 0.0
2018-Feb-15 19:30N 40°37' W 074°12'0 0.0
2018-Feb-15 18:58N 40°37' W 074°12'0 0.0
2018-Feb-15 18:30N 40°37' W 074°12'0 0.0
2018-Feb-15 17:57N 40°37' W 074°12'3 6.4
2018-Feb-15 17:27N 40°34' W 074°13'2 1.4
2018-Feb-15 16:08N 40°32' W 074°15'3 7.4
2018-Feb-15 15:47N 40°34' W 074°13'2 8.4
2018-Feb-15 15:30N 40°37' W 074°12'3 6.2
2018-Feb-15 14:59N 40°39' W 074°09'1 2.4
2018-Feb-15 14:30N 40°38' W 074°08'0 0.0
2018-Feb-15 14:00N 40°38' W 074°08'0 0.0
2018-Feb-15 13:29N 40°38' W 074°08'0 0.0
2018-Feb-15 12:47N 40°38' W 074°08'0 0.0
2018-Feb-15 11:15N 40°38' W 074°08'0 0.0
2018-Feb-15 10:42N 40°38' W 074°08'0 0.0
2018-Feb-15 10:28N 40°38' W 074°08'0 0.0
2018-Feb-15 10:00N 40°38' W 074°08'0 0.0
2018-Feb-15 09:29N 40°38' W 074°08'0 0.0
2018-Feb-15 09:00N 40°38' W 074°08'0 0.0
2018-Feb-15 08:29N 40°38' W 074°08'0 0.0
2018-Feb-15 07:58N 40°38' W 074°08'0 0.0
2018-Feb-15 07:30N 40°38' W 074°08'0 0.0
2018-Feb-15 06:58N 40°38' W 074°08'1 1.3
2018-Feb-15 06:29N 40°39' W 074°07'0 0.1
2018-Feb-15 06:00N 40°39' W 074°07'0 0.0
2018-Feb-15 05:30N 40°39' W 074°07'1 2.5
2018-Feb-15 05:00N 40°39' W 074°05'4 7.1
2018-Feb-15 04:31N 40°40' W 074°01'0 0.1
2018-Feb-15 04:00N 40°40' W 074°01'0 0.0
2018-Feb-15 03:30N 40°40' W 074°01'0 0.0
2018-Feb-15 03:00N 40°40' W 074°01'0 0.0
2018-Feb-15 02:30N 40°40' W 074°01'0 0.0
2018-Feb-15 02:00N 40°40' W 074°01'0 0.0
2018-Feb-15 01:30N 40°40' W 074°01'0 0.0
2018-Feb-15 01:00N 40°40' W 074°01'0 0.0
2018-Feb-15 00:30N 40°40' W 074°01'0 0.0
2018-Feb-15 00:00N 40°40' W 074°01'0 0.0
2018-Feb-14 23:30N 40°40' W 074°01'0 0.0
2018-Feb-14 23:00N 40°40' W 074°01'0 0.0
2018-Feb-14 22:30N 40°40' W 074°01'0 0.0
2018-Feb-14 22:00N 40°40' W 074°01'0 0.0
2018-Feb-14 21:30N 40°40' W 074°01'1 0.7
2018-Feb-14 20:30N 40°39' W 074°02'3 6.2
2018-Feb-14 20:00N 40°37' W 074°03'0 0.1
2018-Feb-14 19:30N 40°37' W 074°03'0 0.8
2018-Feb-14 19:00N 40°36' W 074°03'3 5.3
2018-Feb-14 18:30N 40°39' W 074°03'2 3.9
2018-Feb-14 18:00N 40°40' W 074°01'0 0.0
2018-Feb-14 17:30N 40°40' W 074°01'0 0.0
2018-Feb-14 17:00N 40°40' W 074°01'0 0.0
2018-Feb-14 16:30N 40°40' W 074°01'0 0.0
2018-Feb-14 16:00N 40°40' W 074°01'0 0.0
2018-Feb-14 15:30N 40°40' W 074°01'4 7.0
2018-Feb-14 15:00N 40°39' W 074°05'1 2.4
2018-Feb-14 14:30N 40°39' W 074°07'1 1.8
2018-Feb-14 14:00N 40°39' W 074°06'0 0.9
2018-Feb-14 13:30N 40°39' W 074°05'2 4.8
2018-Feb-14 13:00N 40°40' W 074°03'1 2.5
2018-Feb-14 12:30N 40°40' W 074°01'0 0.0
2018-Feb-14 12:00N 40°40' W 074°01'0 0.0
2018-Feb-14 11:30N 40°40' W 074°01'0 0.0
2018-Feb-14 11:00N 40°40' W 074°01'0 0.2
2018-Feb-14 10:30N 40°40' W 074°01'0 0.2
2018-Feb-14 10:01N 40°40' W 074°01'1 1.8
2018-Feb-14 09:30N 40°40' W 074°02'0 0.1
2018-Feb-14 09:00N 40°40' W 074°02'0 0.0
2018-Feb-14 08:30N 40°40' W 074°02'0 0.0
2018-Feb-14 08:00N 40°40' W 074°02'0 0.0
2018-Feb-14 07:30N 40°40' W 074°02'0 0.0
2018-Feb-14 07:00N 40°40' W 074°02'0 0.0
2018-Feb-14 06:30N 40°40' W 074°02'0 0.0
2018-Feb-14 06:00N 40°40' W 074°02'0 0.6
2018-Feb-14 05:30N 40°40' W 074°03'4 7.4
2018-Feb-14 05:00N 40°39' W 074°07'0 0.5
2018-Feb-14 04:30N 40°38' W 074°08'0 0.0
2018-Feb-14 04:00N 40°38' W 074°08'0 0.0
2018-Feb-14 03:30N 40°38' W 074°08'0 0.0
2018-Feb-14 03:00N 40°38' W 074°08'0 0.0
2018-Feb-14 02:30N 40°38' W 074°08'0 0.0
2018-Feb-14 02:00N 40°38' W 074°08'0 0.0
2018-Feb-14 01:28N 40°38' W 074°08'0 0.0
2018-Feb-14 01:00N 40°38' W 074°08'0 0.0
2018-Feb-14 00:30N 40°38' W 074°08'0 0.0
2018-Feb-14 00:00N 40°38' W 074°08'0 0.0
2018-Feb-13 23:30N 40°38' W 074°08'0 0.0
2018-Feb-13 22:59N 40°38' W 074°08'0 0.0
2018-Feb-13 22:30N 40°38' W 074°08'0 0.0
2018-Feb-13 21:59N 40°38' W 074°08'0 0.0
2018-Feb-13 21:30N 40°38' W 074°08'0 0.0
2018-Feb-13 20:58N 40°38' W 074°08'0 0.0
2018-Feb-13 20:30N 40°38' W 074°08'1 1.5
2018-Feb-13 20:00N 40°39' W 074°07'4 8.0
2018-Feb-13 19:30N 40°40' W 074°02'1 1.6
2018-Feb-13 19:00N 40°40' W 074°01'2 4.5
2018-Feb-13 18:30N 40°39' W 074°04'3 6.1
2018-Feb-13 18:00N 40°38' W 074°08'0 0.9
2018-Feb-13 17:30N 40°39' W 074°07'3 5.7
2018-Feb-13 17:00N 40°38' W 074°04'2 3.7
2018-Feb-13 16:30N 40°37' W 074°02'1 1.8
2018-Feb-13 16:00N 40°36' W 074°02'0 0.1
2018-Feb-13 15:30N 40°36' W 074°02'0 0.6
2018-Feb-13 15:00N 40°36' W 074°02'1 1.7
2018-Feb-13 14:30N 40°36' W 074°02'2 3.8
2018-Feb-13 14:00N 40°38' W 074°03'2 3.4
2018-Feb-13 13:30N 40°40' W 074°01'2 4.1
2018-Feb-13 13:00N 40°42' W 074°00'3 6.2
2018-Feb-13 12:30N 40°44' W 073°58'3 5.9
2018-Feb-13 11:59N 40°47' W 073°56'3 5.3
2018-Feb-13 11:29N 40°48' W 073°53'3 6.5
2018-Feb-13 10:59N 40°48' W 073°49'3 5.9
2018-Feb-13 10:29N 40°51' W 073°46'0 0.3
2018-Feb-13 09:45N 40°51' W 073°46'1 3.1
2018-Feb-13 09:30N 40°50' W 073°47'1 1.7
2018-Feb-13 08:58N 40°51' W 073°46'3 5.9
2018-Feb-13 08:30N 40°48' W 073°47'510.1
2018-Feb-13 07:59N 40°48' W 073°54'5 9.8
2018-Feb-13 07:30N 40°44' W 073°58'4 8.7
2018-Feb-13 07:01N 40°41' W 074°01'1 1.3
2018-Feb-13 06:30N 40°40' W 074°01'0 0.0
2018-Feb-13 06:00N 40°40' W 074°01'1 1.2
2018-Feb-13 05:30N 40°40' W 074°02'3 5.3
2018-Feb-13 05:00N 40°39' W 074°05'0 0.0
2018-Feb-13 04:30N 40°39' W 074°05'2 3.4
2018-Feb-13 04:00N 40°40' W 074°03'2 2.9
2018-Feb-13 03:29N 40°40' W 074°01'0 0.0
2018-Feb-13 02:59N 40°40' W 074°01'0 0.0
2018-Feb-13 02:29N 40°40' W 074°01'0 0.0
2018-Feb-13 01:59N 40°40' W 074°01'0 0.0
2018-Feb-13 01:29N 40°40' W 074°01'0 0.0
2018-Feb-13 00:59N 40°40' W 074°01'0 0.0
2018-Feb-13 00:29N 40°40' W 074°01'0 0.0
2018-Feb-12 23:59N 40°40' W 074°01'0 0.0
2018-Feb-12 23:29N 40°40' W 074°01'0 0.0
2018-Feb-12 22:59N 40°40' W 074°01'0 0.0
2018-Feb-12 22:29N 40°40' W 074°01'0 0.0
2018-Feb-12 21:59N 40°40' W 074°01'0 0.0
2018-Feb-12 21:29N 40°40' W 074°01'0 0.0
2018-Feb-12 20:59N 40°40' W 074°01'0 0.0
2018-Feb-12 20:26N 40°40' W 074°01'0 0.0
2018-Feb-12 19:59N 40°40' W 074°01'0 0.0
2018-Feb-12 19:29N 40°40' W 074°01'0 0.0
2018-Feb-12 18:59N 40°40' W 074°01'0 0.0
2018-Feb-12 18:29N 40°40' W 074°01'0 0.0
2018-Feb-12 17:58N 40°40' W 074°01'0 0.0
2018-Feb-12 17:28N 40°40' W 074°01'0 0.0
2018-Feb-12 16:58N 40°40' W 074°01'0 0.0
2018-Feb-12 16:28N 40°40' W 074°01'0 0.0
2018-Feb-12 15:58N 40°40' W 074°01'0 0.0
2018-Feb-12 15:28N 40°40' W 074°01'0 0.0
2018-Feb-12 14:58N 40°40' W 074°01'0 0.0
2018-Feb-12 14:28N 40°40' W 074°01'0 0.2
2018-Feb-12 14:00N 40°40' W 074°01'0 0.0
2018-Feb-12 13:30N 40°40' W 074°01'0 0.0
2018-Feb-12 13:00N 40°40' W 074°01'0 0.0
2018-Feb-12 12:30N 40°40' W 074°01'0 0.0
2018-Feb-12 12:00N 40°40' W 074°01'0 0.0
2018-Feb-12 11:30N 40°40' W 074°01'0 0.0
2018-Feb-12 11:00N 40°40' W 074°01'0 0.0
2018-Feb-12 10:30N 40°40' W 074°01'0 0.0
2018-Feb-12 10:00N 40°40' W 074°01'0 0.0
2018-Feb-12 09:30N 40°40' W 074°01'0 0.0
2018-Feb-12 09:00N 40°40' W 074°01'0 0.0
2018-Feb-12 08:30N 40°40' W 074°01'0 0.0
2018-Feb-12 07:59N 40°40' W 074°01'0 0.0
2018-Feb-12 07:30N 40°40' W 074°01'0 0.1
2018-Feb-12 07:00N 40°40' W 074°01'0 0.9
2018-Feb-12 06:30N 40°40' W 074°01'2 3.8
2018-Feb-12 06:00N 40°42' W 074°00'5 9.4
2018-Feb-12 05:30N 40°46' W 073°57'4 7.3
2018-Feb-12 04:59N 40°48' W 073°52'4 7.1
2018-Feb-12 04:29N 40°48' W 073°48'5 0.2
2018-Feb-10 23:01N 40°52' W 073°45'2 7.3
2018-Feb-10 22:47N 40°50' W 073°46'2 7.0
2018-Feb-10 22:28N 40°48' W 073°47'3 7.1
2018-Feb-10 22:00N 40°48' W 073°51'4 8.0
2018-Feb-10 21:30N 40°47' W 073°56'4 8.4
2018-Feb-10 21:00N 40°43' W 073°58'4 7.9
2018-Feb-10 20:30N 40°40' W 074°02'3 5.8
2018-Feb-10 20:00N 40°39' W 074°06'3 6.1
2018-Feb-10 19:30N 40°39' W 074°10'3 6.1
2018-Feb-10 19:00N 40°36' W 074°12'4 4.7
2018-Feb-10 18:08N 40°33' W 074°15'0 0.2
2018-Feb-10 17:57N 40°33' W 074°15'0 0.0
2018-Feb-10 17:30N 40°33' W 074°15'0 0.0
2018-Feb-10 16:59N 40°33' W 074°15'0 0.0
2018-Feb-10 16:30N 40°33' W 074°15'0 0.1
2018-Feb-10 15:12N 40°33' W 074°15'0 0.0
2018-Feb-10 14:57N 40°33' W 074°15'1 0.1
2018-Feb-10 08:58N 40°32' W 074°15'0 0.4
2018-Feb-10 08:09N 40°33' W 074°15'1 7.4
2018-Feb-10 07:58N 40°33' W 074°14'4 7.5
2018-Feb-10 07:30N 40°37' W 074°12'4 7.1
2018-Feb-10 07:00N 40°39' W 074°08'4 7.7
2018-Feb-10 06:30N 40°40' W 074°03'2 3.7
2018-Feb-10 06:00N 40°40' W 074°01'0 0.0
2018-Feb-10 05:30N 40°40' W 074°01'0 0.0
2018-Feb-10 05:00N 40°40' W 074°01'0 0.0
2018-Feb-10 04:30N 40°40' W 074°01'0 0.0
2018-Feb-10 04:00N 40°40' W 074°01'2 4.4
2018-Feb-10 03:30N 40°42' W 073°60'5 9.9
2018-Feb-10 02:59N 40°47' W 073°56'4 8.5
2018-Feb-10 02:30N 40°48' W 073°51'4 7.6
2018-Feb-10 01:59N 40°50' W 073°47'13 0.5
2018-Feb-08 20:30N 40°41' W 074°00'4 7.1
2018-Feb-08 20:00N 40°39' W 074°04'7 0.8
2018-Feb-08 11:30N 40°36' W 074°12'0 0.3
2018-Feb-08 11:00N 40°36' W 074°12'4 0.5
2018-Feb-08 01:29N 40°38' W 074°08'0 0.0
2018-Feb-08 00:59N 40°38' W 074°08'  
Track history (hours):
 
Tides and Currents Weather Stations Pressure Air Temp Water Temp Dewpoint Dewpoint Depression Visibility Wind Speed Wind Dir Waves Ship Positions

Franklin Reinauer

Owner: REINAUER TRANSPORTATION CO.LLC., STATEN ISLAND, NY. More information available from US FCC via Universal Licensing System and Coast Guard Vessel Documentation Center.

Last reported at 2018-Feb-17 23:46 UTC. Time now 2018-Feb-18 18:30 UTC.
Position N 40°51' W 073°46'.

Length 24 m; draft 4 m.

Type: Tug. MMSI: 366725230.

Date/timePositionNaut miles runAvg speedWind from/ knotsBaromVisibWave heightAir tempDewpointWater temp
2018-Feb-17 23:46N 40°51' W 073°46'2 7.7
2018-Feb-17 23:28N 40°48' W 073°47'4 7.8
2018-Feb-17 23:00N 40°48' W 073°51'4 7.6
2018-Feb-17 22:30N 40°47' W 073°56'3 6.9
2018-Feb-17 22:00N 40°44' W 073°58'3 6.2
2018-Feb-17 21:30N 40°41' W 074°01'3 6.1
2018-Feb-17 21:00N 40°39' W 074°04'2 4.1
2018-Feb-17 20:29N 40°39' W 074°07'1 1.4
2018-Feb-17 19:58N 40°38' W 074°08'0 0.0
2018-Feb-17 19:30N 40°38' W 074°08'2 3.4
2018-Feb-17 19:00N 40°39' W 074°06'4 7.9
2018-Feb-17 18:30N 40°40' W 074°01'0 0.4
2018-Feb-17 18:00N 40°40' W 074°01'0 0.5
2018-Feb-17 17:30N 40°40' W 074°01'0 0.0
2018-Feb-17 17:00N 40°40' W 074°01'0 0.0
2018-Feb-17 16:30N 40°40' W 074°01'0 0.4
2018-Feb-17 16:00N 40°40' W 074°01'3 5.2
2018-Feb-17 15:30N 40°39' W 074°04'3 5.4
2018-Feb-17 15:00N 40°38' W 074°08'0 0.1
2018-Feb-17 14:30N 40°38' W 074°08'0 0.0
2018-Feb-17 14:00N 40°38' W 074°08'0 0.0
2018-Feb-17 13:30N 40°38' W 074°08'0 0.0
2018-Feb-17 13:00N 40°38' W 074°08'0 0.0
2018-Feb-17 12:29N 40°38' W 074°08'0 0.0
2018-Feb-17 12:00N 40°38' W 074°08'0 0.0
2018-Feb-17 11:22N 40°38' W 074°08'0 0.0
2018-Feb-17 10:59N 40°38' W 074°08'0 0.0
2018-Feb-17 10:27N 40°38' W 074°08'0 0.0
2018-Feb-17 10:00N 40°38' W 074°08'0 0.0
2018-Feb-17 09:30N 40°38' W 074°08'0 0.0
2018-Feb-17 09:00N 40°38' W 074°08'0 0.0
2018-Feb-17 08:30N 40°38' W 074°08'0 0.6
2018-Feb-17 08:00N 40°39' W 074°07'0 0.7
2018-Feb-17 07:29N 40°39' W 074°07'0 0.0
2018-Feb-17 06:57N 40°39' W 074°07'1 3.0
2018-Feb-17 06:30N 40°39' W 074°05'3 6.8
2018-Feb-17 06:00N 40°40' W 074°01'0 0.0
2018-Feb-17 05:30N 40°40' W 074°01'0 0.0
2018-Feb-17 05:00N 40°40' W 074°01'0 0.0
2018-Feb-17 04:30N 40°40' W 074°01'0 0.0
2018-Feb-17 04:00N 40°40' W 074°01'0 0.0
2018-Feb-17 03:30N 40°40' W 074°01'0 0.0
2018-Feb-17 03:00N 40°40' W 074°01'1 1.0
2018-Feb-17 02:30N 40°40' W 074°00'1 1.1
2018-Feb-17 02:00N 40°40' W 074°01'3 6.3
2018-Feb-17 01:30N 40°39' W 074°05'0 0.8
2018-Feb-17 01:00N 40°39' W 074°05'3 5.8
2018-Feb-17 00:31N 40°40' W 074°01'4 7.9
2018-Feb-17 00:00N 40°39' W 074°06'4 8.5
2018-Feb-16 23:30N 40°38' W 074°12'6 2.6
2018-Feb-16 21:02N 40°33' W 074°15'0 0.0
2018-Feb-16 21:00N 40°33' W 074°15'0 0.0
2018-Feb-16 20:30N 40°33' W 074°15'0 0.0
2018-Feb-16 20:00N 40°33' W 074°15'0 0.0
2018-Feb-16 19:28N 40°33' W 074°15'0 0.0
2018-Feb-16 18:59N 40°33' W 074°15'1 0.5
2018-Feb-16 17:23N 40°33' W 074°14'0 0.0
2018-Feb-16 16:46N 40°33' W 074°14'0 0.0
2018-Feb-16 16:10N 40°33' W 074°14'0 0.0
2018-Feb-16 15:58N 40°33' W 074°14'1 1.0
2018-Feb-16 14:58N 40°33' W 074°15'0 0.5
2018-Feb-16 14:28N 40°33' W 074°15'0 0.9
2018-Feb-16 14:00N 40°33' W 074°15'0 0.0
2018-Feb-16 13:30N 40°33' W 074°15'0 0.0
2018-Feb-16 12:57N 40°33' W 074°15'0 0.0
2018-Feb-16 12:29N 40°33' W 074°15'0 0.0
2018-Feb-16 11:27N 40°33' W 074°15'1 0.9
2018-Feb-16 10:27N 40°32' W 074°15'3 6.5
2018-Feb-16 09:59N 40°35' W 074°13'1 1.4
2018-Feb-16 09:18N 40°35' W 074°12'1 1.7
2018-Feb-16 08:59N 40°36' W 074°12'4 7.4
2018-Feb-16 08:30N 40°39' W 074°09'1 2.7
2018-Feb-16 08:00N 40°38' W 074°08'0 0.0
2018-Feb-16 07:30N 40°38' W 074°08'0 0.0
2018-Feb-16 07:00N 40°38' W 074°08'0 0.0
2018-Feb-16 06:30N 40°38' W 074°08'0 0.0
2018-Feb-16 06:00N 40°38' W 074°08'1 1.0
2018-Feb-16 05:29N 40°39' W 074°07'3 7.1
2018-Feb-16 05:00N 40°40' W 074°03'1 2.9
2018-Feb-16 04:30N 40°40' W 074°01'0 0.1
2018-Feb-16 04:00N 40°40' W 074°01'0 0.1
2018-Feb-16 03:30N 40°40' W 074°01'0 0.1
2018-Feb-16 03:00N 40°40' W 074°01'3 5.2
2018-Feb-16 02:30N 40°39' W 074°04'3 5.5
2018-Feb-16 02:00N 40°38' W 074°08'1 1.3
2018-Feb-16 01:30N 40°39' W 074°07'0 0.0
2018-Feb-16 00:59N 40°39' W 074°07'1 2.8
2018-Feb-16 00:30N 40°39' W 074°05'4 8.2
2018-Feb-15 23:58N 40°39' W 074°11'4 8.7
2018-Feb-15 23:30N 40°35' W 074°13'3 2.3
2018-Feb-15 22:15N 40°33' W 074°15'1 2.7
2018-Feb-15 22:00N 40°33' W 074°15'2 4.5
2018-Feb-15 21:27N 40°35' W 074°13'1 2.1
2018-Feb-15 20:59N 40°36' W 074°12'1 1.2
2018-Feb-15 20:30N 40°37' W 074°12'0 0.0
2018-Feb-15 20:00N 40°37' W 074°12'0 0.0
2018-Feb-15 19:30N 40°37' W 074°12'0 0.0
2018-Feb-15 18:58N 40°37' W 074°12'0 0.0
2018-Feb-15 18:30N 40°37' W 074°12'0 0.0
2018-Feb-15 17:57N 40°37' W 074°12'3 6.4
2018-Feb-15 17:27N 40°34' W 074°13'2 1.4
2018-Feb-15 16:08N 40°32' W 074°15'3 7.4
2018-Feb-15 15:47N 40°34' W 074°13'2 8.4
2018-Feb-15 15:30N 40°37' W 074°12'3 6.2
2018-Feb-15 14:59N 40°39' W 074°09'1 2.4
2018-Feb-15 14:30N 40°38' W 074°08'0 0.0
2018-Feb-15 14:00N 40°38' W 074°08'0 0.0
2018-Feb-15 13:29N 40°38' W 074°08'0 0.0
2018-Feb-15 12:47N 40°38' W 074°08'0 0.0
2018-Feb-15 11:15N 40°38' W 074°08'0 0.0
2018-Feb-15 10:42N 40°38' W 074°08'0 0.0
2018-Feb-15 10:28N 40°38' W 074°08'0 0.0
2018-Feb-15 10:00N 40°38' W 074°08'0 0.0
2018-Feb-15 09:29N 40°38' W 074°08'0 0.0
2018-Feb-15 09:00N 40°38' W 074°08'0 0.0
2018-Feb-15 08:29N 40°38' W 074°08'0 0.0
2018-Feb-15 07:58N 40°38' W 074°08'0 0.0
2018-Feb-15 07:30N 40°38' W 074°08'0 0.0
2018-Feb-15 06:58N 40°38' W 074°08'1 1.3
2018-Feb-15 06:29N 40°39' W 074°07'0 0.1
2018-Feb-15 06:00N 40°39' W 074°07'0 0.0
2018-Feb-15 05:30N 40°39' W 074°07'1 2.5
2018-Feb-15 05:00N 40°39' W 074°05'4 7.1
2018-Feb-15 04:31N 40°40' W 074°01'0 0.1
2018-Feb-15 04:00N 40°40' W 074°01'0 0.0
2018-Feb-15 03:30N 40°40' W 074°01'0 0.0
2018-Feb-15 03:00N 40°40' W 074°01'0 0.0
2018-Feb-15 02:30N 40°40' W 074°01'0 0.0
2018-Feb-15 02:00N 40°40' W 074°01'0 0.0
2018-Feb-15 01:30N 40°40' W 074°01'0 0.0
2018-Feb-15 01:00N 40°40' W 074°01'0 0.0
2018-Feb-15 00:30N 40°40' W 074°01'0 0.0
2018-Feb-15 00:00N 40°40' W 074°01'0 0.0
2018-Feb-14 23:30N 40°40' W 074°01'0 0.0
2018-Feb-14 23:00N 40°40' W 074°01'0 0.0
2018-Feb-14 22:30N 40°40' W 074°01'0 0.0
2018-Feb-14 22:00N 40°40' W 074°01'0 0.0
2018-Feb-14 21:30N 40°40' W 074°01'1 0.7
2018-Feb-14 20:30N 40°39' W 074°02'3 6.2
2018-Feb-14 20:00N 40°37' W 074°03'0 0.1
2018-Feb-14 19:30N 40°37' W 074°03'0 0.8
2018-Feb-14 19:00N 40°36' W 074°03'3 5.3
2018-Feb-14 18:30N 40°39' W 074°03'2 3.9
2018-Feb-14 18:00N 40°40' W 074°01'0 0.0
2018-Feb-14 17:30N 40°40' W 074°01'0 0.0
2018-Feb-14 17:00N 40°40' W 074°01'0 0.0
2018-Feb-14 16:30N 40°40' W 074°01'0 0.0
2018-Feb-14 16:00N 40°40' W 074°01'0 0.0
2018-Feb-14 15:30N 40°40' W 074°01'4 7.0
2018-Feb-14 15:00N 40°39' W 074°05'1 2.4
2018-Feb-14 14:30N 40°39' W 074°07'1 1.8
2018-Feb-14 14:00N 40°39' W 074°06'0 0.9
2018-Feb-14 13:30N 40°39' W 074°05'2 4.8
2018-Feb-14 13:00N 40°40' W 074°03'1 2.5
2018-Feb-14 12:30N 40°40' W 074°01'0 0.0
2018-Feb-14 12:00N 40°40' W 074°01'0 0.0
2018-Feb-14 11:30N 40°40' W 074°01'0 0.0
2018-Feb-14 11:00N 40°40' W 074°01'0 0.2
2018-Feb-14 10:30N 40°40' W 074°01'0 0.2
2018-Feb-14 10:01N 40°40' W 074°01'1 1.8
2018-Feb-14 09:30N 40°40' W 074°02'0 0.1
2018-Feb-14 09:00N 40°40' W 074°02'0 0.0
2018-Feb-14 08:30N 40°40' W 074°02'0 0.0
2018-Feb-14 08:00N 40°40' W 074°02'0 0.0
2018-Feb-14 07:30N 40°40' W 074°02'0 0.0
2018-Feb-14 07:00N 40°40' W 074°02'0 0.0
2018-Feb-14 06:30N 40°40' W 074°02'0 0.0
2018-Feb-14 06:00N 40°40' W 074°02'0 0.6
2018-Feb-14 05:30N 40°40' W 074°03'4 7.4
2018-Feb-14 05:00N 40°39' W 074°07'0 0.5
2018-Feb-14 04:30N 40°38' W 074°08'0 0.0
2018-Feb-14 04:00N 40°38' W 074°08'0 0.0
2018-Feb-14 03:30N 40°38' W 074°08'0 0.0
2018-Feb-14 03:00N 40°38' W 074°08'0 0.0
2018-Feb-14 02:30N 40°38' W 074°08'0 0.0
2018-Feb-14 02:00N 40°38' W 074°08'0 0.0
2018-Feb-14 01:28N 40°38' W 074°08'0 0.0
2018-Feb-14 01:00N 40°38' W 074°08'0 0.0
2018-Feb-14 00:30N 40°38' W 074°08'0 0.0
2018-Feb-14 00:00N 40°38' W 074°08'0 0.0
2018-Feb-13 23:30N 40°38' W 074°08'0 0.0
2018-Feb-13 22:59N 40°38' W 074°08'0 0.0
2018-Feb-13 22:30N 40°38' W 074°08'0 0.0
2018-Feb-13 21:59N 40°38' W 074°08'0 0.0
2018-Feb-13 21:30N 40°38' W 074°08'0 0.0
2018-Feb-13 20:58N 40°38' W 074°08'0 0.0
2018-Feb-13 20:30N 40°38' W 074°08'1 1.5
2018-Feb-13 20:00N 40°39' W 074°07'4 8.0
2018-Feb-13 19:30N 40°40' W 074°02'1 1.6
2018-Feb-13 19:00N 40°40' W 074°01'2 4.5
2018-Feb-13 18:30N 40°39' W 074°04'3 6.1
2018-Feb-13 18:00N 40°38' W 074°08'0 0.9
2018-Feb-13 17:30N 40°39' W 074°07'3 5.7
2018-Feb-13 17:00N 40°38' W 074°04'2 3.7
2018-Feb-13 16:30N 40°37' W 074°02'1 1.8
2018-Feb-13 16:00N 40°36' W 074°02'0 0.1
2018-Feb-13 15:30N 40°36' W 074°02'0 0.6
2018-Feb-13 15:00N 40°36' W 074°02'1 1.7
2018-Feb-13 14:30N 40°36' W 074°02'2 3.8
2018-Feb-13 14:00N 40°38' W 074°03'2 3.4
2018-Feb-13 13:30N 40°40' W 074°01'2 4.1
2018-Feb-13 13:00N 40°42' W 074°00'3 6.2
2018-Feb-13 12:30N 40°44' W 073°58'3 5.9
2018-Feb-13 11:59N 40°47' W 073°56'3 5.3
2018-Feb-13 11:29N 40°48' W 073°53'3 6.5
2018-Feb-13 10:59N 40°48' W 073°49'3 5.9
2018-Feb-13 10:29N 40°51' W 073°46'0 0.3
2018-Feb-13 09:45N 40°51' W 073°46'1 3.1
2018-Feb-13 09:30N 40°50' W 073°47'1 1.7
2018-Feb-13 08:58N 40°51' W 073°46'3 5.9
2018-Feb-13 08:30N 40°48' W 073°47'510.1
2018-Feb-13 07:59N 40°48' W 073°54'5 9.8
2018-Feb-13 07:30N 40°44' W 073°58'4 8.7
2018-Feb-13 07:01N 40°41' W 074°01'1 1.3
2018-Feb-13 06:30N 40°40' W 074°01'0 0.0
2018-Feb-13 06:00N 40°40' W 074°01'1 1.2
2018-Feb-13 05:30N 40°40' W 074°02'3 5.3
2018-Feb-13 05:00N 40°39' W 074°05'0 0.0
2018-Feb-13 04:30N 40°39' W 074°05'2 3.4
2018-Feb-13 04:00N 40°40' W 074°03'2 2.9
2018-Feb-13 03:29N 40°40' W 074°01'0 0.0
2018-Feb-13 02:59N 40°40' W 074°01'0 0.0
2018-Feb-13 02:29N 40°40' W 074°01'0 0.0
2018-Feb-13 01:59N 40°40' W 074°01'0 0.0
2018-Feb-13 01:29N 40°40' W 074°01'0 0.0
2018-Feb-13 00:59N 40°40' W 074°01'0 0.0
2018-Feb-13 00:29N 40°40' W 074°01'0 0.0
2018-Feb-12 23:59N 40°40' W 074°01'0 0.0
2018-Feb-12 23:29N 40°40' W 074°01'0 0.0
2018-Feb-12 22:59N 40°40' W 074°01'0 0.0
2018-Feb-12 22:29N 40°40' W 074°01'0 0.0
2018-Feb-12 21:59N 40°40' W 074°01'0 0.0
2018-Feb-12 21:29N 40°40' W 074°01'0 0.0
2018-Feb-12 20:59N 40°40' W 074°01'0 0.0
2018-Feb-12 20:26N 40°40' W 074°01'0 0.0
2018-Feb-12 19:59N 40°40' W 074°01'0 0.0
2018-Feb-12 19:29N 40°40' W 074°01'0 0.0
2018-Feb-12 18:59N 40°40' W 074°01'0 0.0
2018-Feb-12 18:29N 40°40' W 074°01'0 0.0
2018-Feb-12 17:58N 40°40' W 074°01'0 0.0
2018-Feb-12 17:28N 40°40' W 074°01'0 0.0
2018-Feb-12 16:58N 40°40' W 074°01'0 0.0
2018-Feb-12 16:28N 40°40' W 074°01'0 0.0
2018-Feb-12 15:58N 40°40' W 074°01'0 0.0
2018-Feb-12 15:28N 40°40' W 074°01'0 0.0
2018-Feb-12 14:58N 40°40' W 074°01'0 0.0
2018-Feb-12 14:28N 40°40' W 074°01'0 0.2
2018-Feb-12 14:00N 40°40' W 074°01'0 0.0
2018-Feb-12 13:30N 40°40' W 074°01'0 0.0
2018-Feb-12 13:00N 40°40' W 074°01'0 0.0
2018-Feb-12 12:30N 40°40' W 074°01'0 0.0
2018-Feb-12 12:00N 40°40' W 074°01'0 0.0
2018-Feb-12 11:30N 40°40' W 074°01'0 0.0
2018-Feb-12 11:00N 40°40' W 074°01'0 0.0
2018-Feb-12 10:30N 40°40' W 074°01'0 0.0
2018-Feb-12 10:00N 40°40' W 074°01'0 0.0
2018-Feb-12 09:30N 40°40' W 074°01'0 0.0
2018-Feb-12 09:00N 40°40' W 074°01'0 0.0
2018-Feb-12 08:30N 40°40' W 074°01'0 0.0
2018-Feb-12 07:59N 40°40' W 074°01'0 0.0
2018-Feb-12 07:30N 40°40' W 074°01'0 0.1
2018-Feb-12 07:00N 40°40' W 074°01'0 0.9
2018-Feb-12 06:30N 40°40' W 074°01'2 3.8
2018-Feb-12 06:00N 40°42' W 074°00'5 9.4
2018-Feb-12 05:30N 40°46' W 073°57'4 7.3
2018-Feb-12 04:59N 40°48' W 073°52'4 7.1
2018-Feb-12 04:29N 40°48' W 073°48'5 0.2
2018-Feb-10 23:01N 40°52' W 073°45'2 7.3
2018-Feb-10 22:47N 40°50' W 073°46'2 7.0
2018-Feb-10 22:28N 40°48' W 073°47'3 7.1
2018-Feb-10 22:00N 40°48' W 073°51'4 8.0
2018-Feb-10 21:30N 40°47' W 073°56'4 8.4
2018-Feb-10 21:00N 40°43' W 073°58'4 7.9
2018-Feb-10 20:30N 40°40' W 074°02'3 5.8
2018-Feb-10 20:00N 40°39' W 074°06'3 6.1
2018-Feb-10 19:30N 40°39' W 074°10'3 6.1
2018-Feb-10 19:00N 40°36' W 074°12'4 4.7
2018-Feb-10 18:08N 40°33' W 074°15'0 0.2
2018-Feb-10 17:57N 40°33' W 074°15'0 0.0
2018-Feb-10 17:30N 40°33' W 074°15'0 0.0
2018-Feb-10 16:59N 40°33' W 074°15'0 0.0
2018-Feb-10 16:30N 40°33' W 074°15'0 0.1
2018-Feb-10 15:12N 40°33' W 074°15'0 0.0
2018-Feb-10 14:57N 40°33' W 074°15'1 0.1
2018-Feb-10 08:58N 40°32' W 074°15'0 0.4
2018-Feb-10 08:09N 40°33' W 074°15'1 7.4
2018-Feb-10 07:58N 40°33' W 074°14'4 7.5
2018-Feb-10 07:30N 40°37' W 074°12'4 7.1
2018-Feb-10 07:00N 40°39' W 074°08'4 7.7
2018-Feb-10 06:30N 40°40' W 074°03'2 3.7
2018-Feb-10 06:00N 40°40' W 074°01'0 0.0
2018-Feb-10 05:30N 40°40' W 074°01'0 0.0
2018-Feb-10 05:00N 40°40' W 074°01'0 0.0
2018-Feb-10 04:30N 40°40' W 074°01'0 0.0
2018-Feb-10 04:00N 40°40' W 074°01'2 4.4
2018-Feb-10 03:30N 40°42' W 073°60'5 9.9
2018-Feb-10 02:59N 40°47' W 073°56'4 8.5
2018-Feb-10 02:30N 40°48' W 073°51'4 7.6
2018-Feb-10 01:59N 40°50' W 073°47'13 0.5
2018-Feb-08 20:30N 40°41' W 074°00'4 7.1
2018-Feb-08 20:00N 40°39' W 074°04'7 0.8
2018-Feb-08 11:30N 40°36' W 074°12'0 0.3
2018-Feb-08 11:00N 40°36' W 074°12'4 0.5
2018-Feb-08 01:29N 40°38' W 074°08'0 0.0
2018-Feb-08 00:59N 40°38' W 074°08'  

Dump ship's entire track history